KAYS/AYS METAR and TAF weather

Enter ICAO airport designator
Station Type Date Time Source
KAYS METAR 2021/09/24 03:15 UTC NOAA

KAYS 240315Z AUTO 02003KT 10SM CLR 17/16 A3002 RMK AO2 T01680161


Station Type Date Time Source
KAYS Decoded METAR 2021/09/24 03:15 UTC NOAA

Waycross / Ware County, Ga, GA, United States (KAYS) 31-15N 082-24W 46M
Sep 23, 2021 - 11:15 PM EDT / 2021.09.24 0315 UTC
Wind: from the NNE (020 degrees) at 3 MPH (3 KT):0
Visibility: 10 mile(s):0
Sky conditions: clear
Temperature: 62.2 F (16.8 C)
Dew Point: 61.0 F (16.1 C)
Relative Humidity: 95%
Pressure (altimeter): 30.02 in. Hg (1016 hPa)
ob: KAYS 240315Z AUTO 02003KT 10SM CLR 17/16 A3002 RMK AO2 T01680161
cycle: 3

Station Type Date Time Source
KAYS TAF UTC NOAA

Error!

Example: see airport list